sensor_id;sensor_type;location;lat;lon;timestamp;P1;durP1;ratioP1;P2;durP2;ratioP2
5929;SDS011;2990;48.746;9.236;2023-05-23T00:00:56;3.25;;;2.47;;
5929;SDS011;2990;48.746;9.236;2023-05-23T00:03:22;2.05;;;1.88;;
5929;SDS011;2990;48.746;9.236;2023-05-23T00:05:49;7.55;;;2.08;;
5929;SDS011;2990;48.746;9.236;2023-05-23T00:08:15;2.45;;;2.17;;
5929;SDS011;2990;48.746;9.236;2023-05-23T00:10:41;3.10;;;2.95;;
5929;SDS011;2990;48.746;9.236;2023-05-23T00:13:07;3.05;;;2.45;;
5929;SDS011;2990;48.746;9.236;2023-05-23T00:15:33;3.17;;;2.88;;
5929;SDS011;2990;48.746;9.236;2023-05-23T00:18:01;1.60;;;1.60;;
5929;SDS011;2990;48.746;9.236;2023-05-23T00:20:26;3.05;;;2.85;;
5929;SDS011;2990;48.746;9.236;2023-05-23T00:22:53;3.10;;;2.90;;
5929;SDS011;2990;48.746;9.236;2023-05-23T00:25:22;2.17;;;1.95;;
5929;SDS011;2990;48.746;9.236;2023-05-23T00:27:48;4.32;;;2.83;;
5929;SDS011;2990;48.746;9.236;2023-05-23T00:30:14;3.78;;;3.15;;
5929;SDS011;2990;48.746;9.236;2023-05-23T00:32:40;4.63;;;3.08;;
5929;SDS011;2990;48.746;9.236;2023-05-23T00:35:06;3.15;;;3.05;;
5929;SDS011;2990;48.746;9.236;2023-05-23T00:37:32;2.92;;;2.28;;
5929;SDS011;2990;48.746;9.236;2023-05-23T00:39:58;2.67;;;2.58;;
5929;SDS011;2990;48.746;9.236;2023-05-23T00:42:24;3.00;;;2.72;;
5929;SDS011;2990;48.746;9.236;2023-05-23T00:44:49;3.92;;;3.75;;
5929;SDS011;2990;48.746;9.236;2023-05-23T00:47:15;3.40;;;3.17;;
5929;SDS011;2990;48.746;9.236;2023-05-23T00:49:41;3.45;;;2.78;;
5929;SDS011;2990;48.746;9.236;2023-05-23T00:52:07;5.55;;;4.10;;
5929;SDS011;2990;48.746;9.236;2023-05-23T00:54:34;5.03;;;3.35;;
5929;SDS011;2990;48.746;9.236;2023-05-23T00:57:00;3.33;;;2.20;;
5929;SDS011;2990;48.746;9.236;2023-05-23T00:59:28;3.80;;;3.42;;
5929;SDS011;2990;48.746;9.236;2023-05-23T01:01:55;2.85;;;2.80;;
5929;SDS011;2990;48.746;9.236;2023-05-23T01:04:22;4.97;;;3.78;;
5929;SDS011;2990;48.746;9.236;2023-05-23T01:06:51;2.03;;;1.92;;
5929;SDS011;2990;48.746;9.236;2023-05-23T01:09:18;3.33;;;2.92;;
5929;SDS011;2990;48.746;9.236;2023-05-23T01:12:01;3.58;;;3.30;;
5929;SDS011;2990;48.746;9.236;2023-05-23T01:17:32;3.13;;;2.90;;
5929;SDS011;2990;48.746;9.236;2023-05-23T01:20:06;3.25;;;3.00;;
5929;SDS011;2990;48.746;9.236;2023-05-23T01:28:11;3.35;;;3.13;;
5929;SDS011;2990;48.746;9.236;2023-05-23T01:30:41;6.72;;;2.40;;
5929;SDS011;2990;48.746;9.236;2023-05-23T01:33:09;6.22;;;3.83;;
5929;SDS011;2990;48.746;9.236;2023-05-23T01:35:39;6.95;;;3.80;;
5929;SDS011;2990;48.746;9.236;2023-05-23T01:38:07;4.20;;;3.83;;
5929;SDS011;2990;48.746;9.236;2023-05-23T01:40:33;4.20;;;3.35;;
5929;SDS011;2990;48.746;9.236;2023-05-23T01:42:59;4.18;;;3.80;;
5929;SDS011;2990;48.746;9.236;2023-05-23T01:45:25;9.70;;;3.88;;
5929;SDS011;2990;48.746;9.236;2023-05-23T01:47:53;2.45;;;2.35;;
5929;SDS011;2990;48.746;9.236;2023-05-23T01:50:19;4.05;;;3.63;;
5929;SDS011;2990;48.746;9.236;2023-05-23T01:52:46;4.75;;;4.35;;
5929;SDS011;2990;48.746;9.236;2023-05-23T01:55:12;3.92;;;2.90;;
5929;SDS011;2990;48.746;9.236;2023-05-23T01:57:42;4.50;;;3.22;;
5929;SDS011;2990;48.746;9.236;2023-05-23T02:00:12;5.88;;;3.70;;
5929;SDS011;2990;48.746;9.236;2023-05-23T02:02:39;4.97;;;3.15;;
5929;SDS011;2990;48.746;9.236;2023-05-23T02:05:05;9.82;;;2.97;;
5929;SDS011;2990;48.746;9.236;2023-05-23T02:07:31;3.70;;;3.50;;
5929;SDS011;2990;48.746;9.236;2023-05-23T02:09:56;3.30;;;3.00;;
5929;SDS011;2990;48.746;9.236;2023-05-23T02:12:22;3.30;;;2.97;;
5929;SDS011;2990;48.746;9.236;2023-05-23T02:14:48;6.80;;;4.22;;
5929;SDS011;2990;48.746;9.236;2023-05-23T02:17:16;11.80;;;4.28;;
5929;SDS011;2990;48.746;9.236;2023-05-23T02:19:42;5.57;;;4.63;;
5929;SDS011;2990;48.746;9.236;2023-05-23T02:22:08;6.93;;;3.50;;
5929;SDS011;2990;48.746;9.236;2023-05-23T02:24:33;3.75;;;2.42;;
5929;SDS011;2990;48.746;9.236;2023-05-23T02:26:59;4.00;;;3.30;;
5929;SDS011;2990;48.746;9.236;2023-05-23T02:29:24;8.40;;;4.45;;
5929;SDS011;2990;48.746;9.236;2023-05-23T02:31:50;3.17;;;2.90;;
5929;SDS011;2990;48.746;9.236;2023-05-23T02:34:15;4.15;;;3.85;;
5929;SDS011;2990;48.746;9.236;2023-05-23T02:36:41;7.82;;;4.00;;
5929;SDS011;2990;48.746;9.236;2023-05-23T02:39:07;9.88;;;4.22;;
5929;SDS011;2990;48.746;9.236;2023-05-23T02:41:32;6.38;;;3.72;;
5929;SDS011;2990;48.746;9.236;2023-05-23T02:43:58;8.10;;;3.72;;
5929;SDS011;2990;48.746;9.236;2023-05-23T02:46:23;5.07;;;4.25;;
5929;SDS011;2990;48.746;9.236;2023-05-23T02:48:49;9.20;;;4.20;;
5929;SDS011;2990;48.746;9.236;2023-05-23T02:51:15;5.00;;;4.55;;
5929;SDS011;2990;48.746;9.236;2023-05-23T02:53:41;4.20;;;3.80;;
5929;SDS011;2990;48.746;9.236;2023-05-23T02:56:06;5.95;;;4.22;;
5929;SDS011;2990;48.746;9.236;2023-05-23T02:58:32;10.32;;;3.72;;
5929;SDS011;2990;48.746;9.236;2023-05-23T03:01:00;3.78;;;3.42;;
5929;SDS011;2990;48.746;9.236;2023-05-23T03:03:26;4.63;;;4.03;;
5929;SDS011;2990;48.746;9.236;2023-05-23T03:05:52;4.78;;;4.32;;
5929;SDS011;2990;48.746;9.236;2023-05-23T03:08:18;6.60;;;3.83;;
5929;SDS011;2990;48.746;9.236;2023-05-23T03:10:44;5.10;;;3.60;;
5929;SDS011;2990;48.746;9.236;2023-05-23T03:13:10;6.38;;;4.40;;
5929;SDS011;2990;48.746;9.236;2023-05-23T03:15:35;4.78;;;2.97;;
5929;SDS011;2990;48.746;9.236;2023-05-23T03:18:01;7.32;;;3.53;;
5929;SDS011;2990;48.746;9.236;2023-05-23T03:20:26;7.68;;;4.32;;
5929;SDS011;2990;48.746;9.236;2023-05-23T03:22:52;5.40;;;3.92;;
5929;SDS011;2990;48.746;9.236;2023-05-23T03:25:17;6.45;;;3.60;;
5929;SDS011;2990;48.746;9.236;2023-05-23T03:27:43;4.30;;;3.70;;
5929;SDS011;2990;48.746;9.236;2023-05-23T03:30:09;4.03;;;3.03;;
5929;SDS011;2990;48.746;9.236;2023-05-23T03:32:35;4.80;;;3.75;;
5929;SDS011;2990;48.746;9.236;2023-05-23T03:35:01;6.25;;;4.35;;
5929;SDS011;2990;48.746;9.236;2023-05-23T03:37:27;4.15;;;2.85;;
5929;SDS011;2990;48.746;9.236;2023-05-23T03:39:52;3.60;;;3.38;;
5929;SDS011;2990;48.746;9.236;2023-05-23T03:42:18;3.67;;;3.42;;
5929;SDS011;2990;48.746;9.236;2023-05-23T03:44:43;4.60;;;3.75;;
5929;SDS011;2990;48.746;9.236;2023-05-23T03:47:09;4.90;;;4.38;;
5929;SDS011;2990;48.746;9.236;2023-05-23T03:49:35;5.88;;;4.53;;
5929;SDS011;2990;48.746;9.236;2023-05-23T03:52:01;5.30;;;3.70;;
5929;SDS011;2990;48.746;9.236;2023-05-23T03:54:26;4.28;;;3.88;;
5929;SDS011;2990;48.746;9.236;2023-05-23T03:56:52;4.13;;;3.72;;
5929;SDS011;2990;48.746;9.236;2023-05-23T03:59:18;5.45;;;3.78;;
5929;SDS011;2990;48.746;9.236;2023-05-23T04:01:43;3.40;;;3.10;;
5929;SDS011;2990;48.746;9.236;2023-05-23T04:04:09;8.85;;;4.40;;
5929;SDS011;2990;48.746;9.236;2023-05-23T04:06:34;4.85;;;3.03;;
5929;SDS011;2990;48.746;9.236;2023-05-23T04:09:00;5.22;;;4.72;;
5929;SDS011;2990;48.746;9.236;2023-05-23T04:11:27;3.25;;;2.95;;
5929;SDS011;2990;48.746;9.236;2023-05-23T04:13:52;9.15;;;3.40;;
5929;SDS011;2990;48.746;9.236;2023-05-23T04:16:18;4.60;;;3.55;;
5929;SDS011;2990;48.746;9.236;2023-05-23T04:18:44;4.03;;;3.33;;
5929;SDS011;2990;48.746;9.236;2023-05-23T04:21:11;5.22;;;4.10;;
5929;SDS011;2990;48.746;9.236;2023-05-23T04:23:36;4.68;;;4.18;;
5929;SDS011;2990;48.746;9.236;2023-05-23T04:26:02;4.25;;;2.85;;
5929;SDS011;2990;48.746;9.236;2023-05-23T04:28:29;4.95;;;3.78;;
5929;SDS011;2990;48.746;9.236;2023-05-23T04:30:55;3.95;;;3.58;;
5929;SDS011;2990;48.746;9.236;2023-05-23T04:33:22;8.15;;;3.72;;
5929;SDS011;2990;48.746;9.236;2023-05-23T04:35:48;6.72;;;3.95;;
5929;SDS011;2990;48.746;9.236;2023-05-23T04:38:13;4.70;;;4.25;;
5929;SDS011;2990;48.746;9.236;2023-05-23T04:40:39;5.65;;;4.00;;
5929;SDS011;2990;48.746;9.236;2023-05-23T04:43:13;4.57;;;3.30;;
5929;SDS011;2990;48.746;9.236;2023-05-23T04:45:42;3.10;;;2.80;;
5929;SDS011;2990;48.746;9.236;2023-05-23T04:48:27;4.03;;;3.60;;
5929;SDS011;2990;48.746;9.236;2023-05-23T04:50:53;3.20;;;3.00;;
5929;SDS011;2990;48.746;9.236;2023-05-23T04:53:20;3.75;;;3.55;;
5929;SDS011;2990;48.746;9.236;2023-05-23T04:55:46;4.57;;;3.28;;
5929;SDS011;2990;48.746;9.236;2023-05-23T04:58:12;4.38;;;3.92;;
5929;SDS011;2990;48.746;9.236;2023-05-23T05:00:37;3.78;;;2.90;;
5929;SDS011;2990;48.746;9.236;2023-05-23T05:03:03;5.50;;;3.22;;
5929;SDS011;2990;48.746;9.236;2023-05-23T05:05:29;2.72;;;2.60;;
5929;SDS011;2990;48.746;9.236;2023-05-23T05:07:54;4.07;;;3.60;;
5929;SDS011;2990;48.746;9.236;2023-05-23T05:10:20;3.53;;;3.22;;
5929;SDS011;2990;48.746;9.236;2023-05-23T05:15:41;3.42;;;2.65;;
5929;SDS011;2990;48.746;9.236;2023-05-23T05:18:07;3.75;;;2.97;;
5929;SDS011;2990;48.746;9.236;2023-05-23T05:20:33;4.50;;;3.42;;
5929;SDS011;2990;48.746;9.236;2023-05-23T05:22:58;6.00;;;3.55;;
5929;SDS011;2990;48.746;9.236;2023-05-23T05:25:24;4.60;;;2.85;;
5929;SDS011;2990;48.746;9.236;2023-05-23T05:27:51;4.15;;;3.67;;
5929;SDS011;2990;48.746;9.236;2023-05-23T05:30:16;4.53;;;3.65;;
5929;SDS011;2990;48.746;9.236;2023-05-23T05:32:53;3.65;;;2.30;;
5929;SDS011;2990;48.746;9.236;2023-05-23T05:35:34;3.03;;;2.83;;
5929;SDS011;2990;48.746;9.236;2023-05-23T05:38:02;4.75;;;3.63;;
5929;SDS011;2990;48.746;9.236;2023-05-23T05:40:29;3.70;;;3.10;;
5929;SDS011;2990;48.746;9.236;2023-05-23T05:42:55;3.40;;;3.30;;
5929;SDS011;2990;48.746;9.236;2023-05-23T05:45:21;3.83;;;3.53;;
5929;SDS011;2990;48.746;9.236;2023-05-23T05:47:47;5.10;;;3.70;;
5929;SDS011;2990;48.746;9.236;2023-05-23T05:50:13;3.75;;;3.55;;
5929;SDS011;2990;48.746;9.236;2023-05-23T05:52:39;3.55;;;3.08;;
5929;SDS011;2990;48.746;9.236;2023-05-23T05:55:06;3.60;;;3.30;;
5929;SDS011;2990;48.746;9.236;2023-05-23T05:57:40;3.83;;;3.63;;
5929;SDS011;2990;48.746;9.236;2023-05-23T06:00:07;4.40;;;2.75;;
5929;SDS011;2990;48.746;9.236;2023-05-23T06:02:39;3.17;;;2.95;;
5929;SDS011;2990;48.746;9.236;2023-05-23T06:05:07;10.30;;;4.55;;
5929;SDS011;2990;48.746;9.236;2023-05-23T06:07:36;4.32;;;3.25;;
5929;SDS011;2990;48.746;9.236;2023-05-23T06:10:02;3.15;;;3.00;;
5929;SDS011;2990;48.746;9.236;2023-05-23T06:12:28;4.50;;;3.63;;
5929;SDS011;2990;48.746;9.236;2023-05-23T06:14:53;3.60;;;3.50;;
5929;SDS011;2990;48.746;9.236;2023-05-23T06:17:19;3.40;;;3.10;;
5929;SDS011;2990;48.746;9.236;2023-05-23T06:19:44;4.05;;;3.65;;
5929;SDS011;2990;48.746;9.236;2023-05-23T06:22:10;4.40;;;4.10;;
5929;SDS011;2990;48.746;9.236;2023-05-23T06:24:36;3.42;;;3.22;;
5929;SDS011;2990;48.746;9.236;2023-05-23T06:27:01;2.70;;;2.60;;
5929;SDS011;2990;48.746;9.236;2023-05-23T06:29:28;3.28;;;3.08;;
5929;SDS011;2990;48.746;9.236;2023-05-23T06:31:55;3.78;;;2.88;;
5929;SDS011;2990;48.746;9.236;2023-05-23T06:34:20;4.60;;;3.35;;
5929;SDS011;2990;48.746;9.236;2023-05-23T06:36:46;3.17;;;2.75;;
5929;SDS011;2990;48.746;9.236;2023-05-23T06:39:12;2.78;;;2.58;;
5929;SDS011;2990;48.746;9.236;2023-05-23T06:41:38;7.15;;;3.80;;
5929;SDS011;2990;48.746;9.236;2023-05-23T06:44:04;5.78;;;3.13;;
5929;SDS011;2990;48.746;9.236;2023-05-23T06:46:41;3.03;;;2.63;;
5929;SDS011;2990;48.746;9.236;2023-05-23T06:49:36;2.78;;;1.63;;
5929;SDS011;2990;48.746;9.236;2023-05-23T06:52:05;4.90;;;3.10;;
5929;SDS011;2990;48.746;9.236;2023-05-23T06:54:30;3.40;;;3.10;;
5929;SDS011;2990;48.746;9.236;2023-05-23T06:56:56;3.65;;;2.60;;
5929;SDS011;2990;48.746;9.236;2023-05-23T06:59:22;4.28;;;3.45;;
5929;SDS011;2990;48.746;9.236;2023-05-23T07:01:47;6.25;;;4.53;;
5929;SDS011;2990;48.746;9.236;2023-05-23T07:04:13;3.25;;;2.97;;
5929;SDS011;2990;48.746;9.236;2023-05-23T07:06:39;3.55;;;3.22;;
5929;SDS011;2990;48.746;9.236;2023-05-23T07:09:04;5.93;;;4.15;;
5929;SDS011;2990;48.746;9.236;2023-05-23T07:11:30;3.50;;;3.28;;
5929;SDS011;2990;48.746;9.236;2023-05-23T07:13:56;4.13;;;3.72;;
5929;SDS011;2990;48.746;9.236;2023-05-23T07:16:21;4.80;;;3.92;;
5929;SDS011;2990;48.746;9.236;2023-05-23T07:18:47;6.25;;;4.15;;
5929;SDS011;2990;48.746;9.236;2023-05-23T07:21:12;4.57;;;3.00;;
5929;SDS011;2990;48.746;9.236;2023-05-23T07:23:39;2.63;;;2.42;;
5929;SDS011;2990;48.746;9.236;2023-05-23T07:26:04;6.78;;;6.15;;
5929;SDS011;2990;48.746;9.236;2023-05-23T07:28:33;2.78;;;2.65;;
5929;SDS011;2990;48.746;9.236;2023-05-23T07:30:59;3.00;;;2.80;;
5929;SDS011;2990;48.746;9.236;2023-05-23T07:33:24;4.47;;;3.22;;
5929;SDS011;2990;48.746;9.236;2023-05-23T07:35:50;3.85;;;3.55;;
5929;SDS011;2990;48.746;9.236;2023-05-23T07:38:16;3.60;;;3.35;;
5929;SDS011;2990;48.746;9.236;2023-05-23T07:40:41;4.93;;;2.83;;
5929;SDS011;2990;48.746;9.236;2023-05-23T07:43:07;3.30;;;3.10;;
5929;SDS011;2990;48.746;9.236;2023-05-23T07:45:32;4.10;;;2.47;;
5929;SDS011;2990;48.746;9.236;2023-05-23T07:47:58;2.63;;;2.50;;
5929;SDS011;2990;48.746;9.236;2023-05-23T07:50:23;2.50;;;2.30;;
5929;SDS011;2990;48.746;9.236;2023-05-23T07:52:51;2.97;;;2.72;;
5929;SDS011;2990;48.746;9.236;2023-05-23T07:55:17;7.35;;;2.33;;
5929;SDS011;2990;48.746;9.236;2023-05-23T07:57:42;3.95;;;2.67;;
5929;SDS011;2990;48.746;9.236;2023-05-23T08:00:08;2.63;;;2.53;;
5929;SDS011;2990;48.746;9.236;2023-05-23T08:02:34;3.67;;;2.90;;
5929;SDS011;2990;48.746;9.236;2023-05-23T08:05:00;3.40;;;3.20;;
5929;SDS011;2990;48.746;9.236;2023-05-23T08:07:25;3.53;;;3.20;;
5929;SDS011;2990;48.746;9.236;2023-05-23T08:09:51;8.82;;;4.43;;
5929;SDS011;2990;48.746;9.236;2023-05-23T08:12:16;10.43;;;5.35;;
5929;SDS011;2990;48.746;9.236;2023-05-23T08:14:42;3.97;;;3.65;;
5929;SDS011;2990;48.746;9.236;2023-05-23T08:17:08;2.63;;;2.50;;
5929;SDS011;2990;48.746;9.236;2023-05-23T08:19:34;2.08;;;1.90;;
5929;SDS011;2990;48.746;9.236;2023-05-23T08:22:00;3.83;;;3.53;;
5929;SDS011;2990;48.746;9.236;2023-05-23T08:24:26;1.90;;;1.73;;
5929;SDS011;2990;48.746;9.236;2023-05-23T08:26:53;2.17;;;1.67;;
5929;SDS011;2990;48.746;9.236;2023-05-23T08:29:19;1.60;;;1.60;;
5929;SDS011;2990;48.746;9.236;2023-05-23T08:31:44;2.70;;;2.50;;
5929;SDS011;2990;48.746;9.236;2023-05-23T08:34:10;2.55;;;2.45;;
5929;SDS011;2990;48.746;9.236;2023-05-23T08:36:36;1.50;;;1.50;;
5929;SDS011;2990;48.746;9.236;2023-05-23T08:39:04;1.92;;;1.83;;
5929;SDS011;2990;48.746;9.236;2023-05-23T08:41:30;1.52;;;1.38;;
5929;SDS011;2990;48.746;9.236;2023-05-23T08:43:56;1.55;;;1.55;;
5929;SDS011;2990;48.746;9.236;2023-05-23T08:46:21;4.97;;;1.83;;
5929;SDS011;2990;48.746;9.236;2023-05-23T08:48:49;2.40;;;2.30;;
5929;SDS011;2990;48.746;9.236;2023-05-23T08:51:16;4.82;;;1.73;;
5929;SDS011;2990;48.746;9.236;2023-05-23T08:53:43;4.05;;;1.92;;
5929;SDS011;2990;48.746;9.236;2023-05-23T08:56:11;1.92;;;1.83;;
5929;SDS011;2990;48.746;9.236;2023-05-23T08:58:38;1.67;;;1.48;;
5929;SDS011;2990;48.746;9.236;2023-05-23T09:01:13;3.85;;;2.60;;
5929;SDS011;2990;48.746;9.236;2023-05-23T09:03:42;1.63;;;1.60;;
5929;SDS011;2990;48.746;9.236;2023-05-23T09:06:14;1.02;;;1.02;;
5929;SDS011;2990;48.746;9.236;2023-05-23T09:08:42;2.53;;;2.33;;
5929;SDS011;2990;48.746;9.236;2023-05-23T09:11:11;1.88;;;1.77;;
5929;SDS011;2990;48.746;9.236;2023-05-23T09:13:45;1.77;;;1.77;;
5929;SDS011;2990;48.746;9.236;2023-05-23T09:16:14;1.08;;;1.02;;
5929;SDS011;2990;48.746;9.236;2023-05-23T09:19:18;2.30;;;2.10;;
5929;SDS011;2990;48.746;9.236;2023-05-23T09:21:52;2.65;;;2.53;;
5929;SDS011;2990;48.746;9.236;2023-05-23T09:30:35;1.75;;;1.65;;
5929;SDS011;2990;48.746;9.236;2023-05-23T09:39:22;2.38;;;2.13;;
5929;SDS011;2990;48.746;9.236;2023-05-23T09:41:47;1.50;;;1.50;;
5929;SDS011;2990;48.746;9.236;2023-05-23T09:44:13;1.40;;;1.40;;
5929;SDS011;2990;48.746;9.236;2023-05-23T09:46:46;2.53;;;1.40;;
5929;SDS011;2990;48.746;9.236;2023-05-23T09:49:17;2.13;;;1.83;;
5929;SDS011;2990;48.746;9.236;2023-05-23T09:51:43;2.17;;;1.95;;
5929;SDS011;2990;48.746;9.236;2023-05-23T09:54:20;1.50;;;1.50;;
5929;SDS011;2990;48.746;9.236;2023-05-23T09:56:46;1.88;;;1.77;;
5929;SDS011;2990;48.746;9.236;2023-05-23T09:59:13;1.55;;;1.55;;
5929;SDS011;2990;48.746;9.236;2023-05-23T10:01:41;1.85;;;1.75;;
5929;SDS011;2990;48.746;9.236;2023-05-23T10:04:11;1.80;;;1.45;;
5929;SDS011;2990;48.746;9.236;2023-05-23T10:06:40;1.27;;;1.23;;
5929;SDS011;2990;48.746;9.236;2023-05-23T10:09:19;1.58;;;1.58;;
5929;SDS011;2990;48.746;9.236;2023-05-23T10:14:42;1.63;;;1.63;;
5929;SDS011;2990;48.746;9.236;2023-05-23T10:17:11;1.73;;;1.58;;
5929;SDS011;2990;48.746;9.236;2023-05-23T10:19:56;1.08;;;1.08;;
5929;SDS011;2990;48.746;9.236;2023-05-23T10:22:26;1.38;;;1.38;;
5929;SDS011;2990;48.746;9.236;2023-05-23T10:24:52;1.75;;;1.65;;
5929;SDS011;2990;48.746;9.236;2023-05-23T10:27:18;1.08;;;1.08;;
5929;SDS011;2990;48.746;9.236;2023-05-23T10:29:44;1.42;;;1.42;;
5929;SDS011;2990;48.746;9.236;2023-05-23T10:32:10;1.42;;;1.42;;
5929;SDS011;2990;48.746;9.236;2023-05-23T10:34:41;1.90;;;1.80;;
5929;SDS011;2990;48.746;9.236;2023-05-23T10:37:16;1.65;;;1.63;;
5929;SDS011;2990;48.746;9.236;2023-05-23T10:43:00;1.55;;;1.55;;
5929;SDS011;2990;48.746;9.236;2023-05-23T10:45:47;1.23;;;1.05;;
5929;SDS011;2990;48.746;9.236;2023-05-23T10:48:33;1.67;;;1.58;;
5929;SDS011;2990;48.746;9.236;2023-05-23T10:51:00;1.20;;;1.20;;
5929;SDS011;2990;48.746;9.236;2023-05-23T10:53:30;1.48;;;1.45;;
5929;SDS011;2990;48.746;9.236;2023-05-23T10:56:01;1.00;;;0.95;;
5929;SDS011;2990;48.746;9.236;2023-05-23T10:58:29;0.90;;;0.90;;
5929;SDS011;2990;48.746;9.236;2023-05-23T11:00:59;1.05;;;1.05;;
5929;SDS011;2990;48.746;9.236;2023-05-23T11:09:09;1.17;;;1.17;;
5929;SDS011;2990;48.746;9.236;2023-05-23T11:16:59;2.92;;;1.63;;
5929;SDS011;2990;48.746;9.236;2023-05-23T11:19:38;2.65;;;1.30;;
5929;SDS011;2990;48.746;9.236;2023-05-23T11:22:08;1.73;;;0.73;;
5929;SDS011;2990;48.746;9.236;2023-05-23T11:27:25;1.30;;;1.25;;
5929;SDS011;2990;48.746;9.236;2023-05-23T11:30:13;0.88;;;0.88;;
5929;SDS011;2990;48.746;9.236;2023-05-23T11:32:51;1.40;;;1.40;;
5929;SDS011;2990;48.746;9.236;2023-05-23T11:35:19;1.25;;;1.15;;
5929;SDS011;2990;48.746;9.236;2023-05-23T11:37:45;1.00;;;0.70;;
5929;SDS011;2990;48.746;9.236;2023-05-23T11:40:33;1.10;;;1.10;;
5929;SDS011;2990;48.746;9.236;2023-05-23T11:43:04;1.48;;;1.48;;
5929;SDS011;2990;48.746;9.236;2023-05-23T11:45:31;0.75;;;0.75;;
5929;SDS011;2990;48.746;9.236;2023-05-23T11:48:10;1.13;;;1.13;;
5929;SDS011;2990;48.746;9.236;2023-05-23T11:50:52;0.70;;;0.70;;
5929;SDS011;2990;48.746;9.236;2023-05-23T11:53:21;0.90;;;0.90;;
5929;SDS011;2990;48.746;9.236;2023-05-23T11:55:53;0.57;;;0.57;;
5929;SDS011;2990;48.746;9.236;2023-05-23T11:58:22;0.98;;;0.98;;
5929;SDS011;2990;48.746;9.236;2023-05-23T12:01:03;1.40;;;0.90;;
5929;SDS011;2990;48.746;9.236;2023-05-23T12:03:31;3.20;;;1.55;;
5929;SDS011;2990;48.746;9.236;2023-05-23T12:05:57;0.90;;;0.90;;
5929;SDS011;2990;48.746;9.236;2023-05-23T12:08:23;0.63;;;0.63;;
5929;SDS011;2990;48.746;9.236;2023-05-23T12:10:55;1.00;;;1.00;;
5929;SDS011;2990;48.746;9.236;2023-05-23T12:13:23;0.95;;;0.95;;
5929;SDS011;2990;48.746;9.236;2023-05-23T12:15:59;1.20;;;1.10;;
5929;SDS011;2990;48.746;9.236;2023-05-23T12:18:26;1.23;;;1.20;;
5929;SDS011;2990;48.746;9.236;2023-05-23T12:20:53;1.13;;;1.13;;
5929;SDS011;2990;48.746;9.236;2023-05-23T12:23:23;1.58;;;1.48;;
5929;SDS011;2990;48.746;9.236;2023-05-23T12:25:52;1.33;;;1.23;;
5929;SDS011;2990;48.746;9.236;2023-05-23T12:28:20;1.10;;;1.10;;
5929;SDS011;2990;48.746;9.236;2023-05-23T12:30:58;1.23;;;1.23;;
5929;SDS011;2990;48.746;9.236;2023-05-23T12:33:32;0.82;;;0.82;;
5929;SDS011;2990;48.746;9.236;2023-05-23T12:36:04;1.15;;;1.15;;
5929;SDS011;2990;48.746;9.236;2023-05-23T12:38:45;1.83;;;1.40;;
5929;SDS011;2990;48.746;9.236;2023-05-23T12:41:16;1.08;;;1.08;;
5929;SDS011;2990;48.746;9.236;2023-05-23T12:43:52;0.80;;;0.80;;
5929;SDS011;2990;48.746;9.236;2023-05-23T12:46:19;0.57;;;0.50;;
5929;SDS011;2990;48.746;9.236;2023-05-23T12:48:46;0.60;;;0.60;;
5929;SDS011;2990;48.746;9.236;2023-05-23T12:51:14;0.52;;;0.52;;
5929;SDS011;2990;48.746;9.236;2023-05-23T12:53:41;0.80;;;0.80;;
5929;SDS011;2990;48.746;9.236;2023-05-23T12:56:07;0.98;;;0.98;;
5929;SDS011;2990;48.746;9.236;2023-05-23T12:58:36;0.68;;;0.68;;
5929;SDS011;2990;48.746;9.236;2023-05-23T13:01:02;0.90;;;0.90;;
5929;SDS011;2990;48.746;9.236;2023-05-23T13:03:28;1.10;;;1.10;;
5929;SDS011;2990;48.746;9.236;2023-05-23T13:06:00;0.82;;;0.82;;
5929;SDS011;2990;48.746;9.236;2023-05-23T13:08:33;0.77;;;0.77;;
5929;SDS011;2990;48.746;9.236;2023-05-23T13:10:59;0.77;;;0.77;;
5929;SDS011;2990;48.746;9.236;2023-05-23T13:13:24;0.88;;;0.88;;
5929;SDS011;2990;48.746;9.236;2023-05-23T13:15:52;0.70;;;0.70;;
5929;SDS011;2990;48.746;9.236;2023-05-23T13:18:18;0.98;;;0.98;;
5929;SDS011;2990;48.746;9.236;2023-05-23T13:20:44;0.80;;;0.80;;
5929;SDS011;2990;48.746;9.236;2023-05-23T13:23:10;0.77;;;0.77;;
5929;SDS011;2990;48.746;9.236;2023-05-23T13:25:36;0.60;;;0.60;;
5929;SDS011;2990;48.746;9.236;2023-05-23T13:28:02;0.70;;;0.70;;
5929;SDS011;2990;48.746;9.236;2023-05-23T13:30:30;0.77;;;0.77;;
5929;SDS011;2990;48.746;9.236;2023-05-23T13:32:56;0.80;;;0.80;;
5929;SDS011;2990;48.746;9.236;2023-05-23T13:35:22;0.82;;;0.82;;
5929;SDS011;2990;48.746;9.236;2023-05-23T13:37:48;0.60;;;0.60;;
5929;SDS011;2990;48.746;9.236;2023-05-23T13:40:17;0.63;;;0.63;;
5929;SDS011;2990;48.746;9.236;2023-05-23T13:42:46;0.65;;;0.65;;
5929;SDS011;2990;48.746;9.236;2023-05-23T13:45:13;0.50;;;0.50;;
5929;SDS011;2990;48.746;9.236;2023-05-23T13:47:39;0.65;;;0.65;;
5929;SDS011;2990;48.746;9.236;2023-05-23T13:50:05;0.57;;;0.57;;
5929;SDS011;2990;48.746;9.236;2023-05-23T13:52:32;1.15;;;0.47;;
5929;SDS011;2990;48.746;9.236;2023-05-23T13:54:58;0.90;;;0.90;;
5929;SDS011;2990;48.746;9.236;2023-05-23T13:57:26;0.50;;;0.50;;
5929;SDS011;2990;48.746;9.236;2023-05-23T13:59:52;0.43;;;0.43;;
5929;SDS011;2990;48.746;9.236;2023-05-23T14:02:20;0.75;;;0.75;;
5929;SDS011;2990;48.746;9.236;2023-05-23T14:04:47;0.60;;;0.60;;
5929;SDS011;2990;48.746;9.236;2023-05-23T14:07:14;0.43;;;0.43;;
5929;SDS011;2990;48.746;9.236;2023-05-23T14:09:39;0.63;;;0.50;;
5929;SDS011;2990;48.746;9.236;2023-05-23T14:12:05;0.43;;;0.43;;
5929;SDS011;2990;48.746;9.236;2023-05-23T14:14:31;0.63;;;0.63;;
5929;SDS011;2990;48.746;9.236;2023-05-23T14:16:57;0.70;;;0.70;;
5929;SDS011;2990;48.746;9.236;2023-05-23T14:19:23;0.60;;;0.60;;
5929;SDS011;2990;48.746;9.236;2023-05-23T14:21:48;0.40;;;0.40;;
5929;SDS011;2990;48.746;9.236;2023-05-23T14:24:14;0.50;;;0.50;;
5929;SDS011;2990;48.746;9.236;2023-05-23T14:26:40;0.55;;;0.55;;
5929;SDS011;2990;48.746;9.236;2023-05-23T14:29:06;0.60;;;0.60;;
5929;SDS011;2990;48.746;9.236;2023-05-23T14:31:31;0.70;;;0.70;;
5929;SDS011;2990;48.746;9.236;2023-05-23T14:33:57;0.60;;;0.60;;
5929;SDS011;2990;48.746;9.236;2023-05-23T14:36:25;0.65;;;0.65;;
5929;SDS011;2990;48.746;9.236;2023-05-23T14:38:52;0.60;;;0.60;;
5929;SDS011;2990;48.746;9.236;2023-05-23T14:41:18;1.05;;;0.68;;
5929;SDS011;2990;48.746;9.236;2023-05-23T14:46:44;0.50;;;0.47;;
5929;SDS011;2990;48.746;9.236;2023-05-23T14:49:21;0.75;;;0.75;;
5929;SDS011;2990;48.746;9.236;2023-05-23T14:51:54;0.47;;;0.47;;
5929;SDS011;2990;48.746;9.236;2023-05-23T14:54:23;1.15;;;0.52;;
5929;SDS011;2990;48.746;9.236;2023-05-23T14:56:48;0.68;;;0.57;;
5929;SDS011;2990;48.746;9.236;2023-05-23T14:59:33;0.40;;;0.40;;
5929;SDS011;2990;48.746;9.236;2023-05-23T15:02:03;0.35;;;0.35;;
5929;SDS011;2990;48.746;9.236;2023-05-23T15:04:34;0.65;;;0.65;;
5929;SDS011;2990;48.746;9.236;2023-05-23T15:07:04;0.73;;;0.47;;
5929;SDS011;2990;48.746;9.236;2023-05-23T15:09:44;0.70;;;0.70;;
5929;SDS011;2990;48.746;9.236;2023-05-23T15:12:11;0.75;;;0.75;;
5929;SDS011;2990;48.746;9.236;2023-05-23T15:14:48;0.68;;;0.30;;
5929;SDS011;2990;48.746;9.236;2023-05-23T15:17:27;0.40;;;0.40;;
5929;SDS011;2990;48.746;9.236;2023-05-23T15:19:56;0.55;;;0.55;;
5929;SDS011;2990;48.746;9.236;2023-05-23T15:22:32;0.45;;;0.45;;
5929;SDS011;2990;48.746;9.236;2023-05-23T15:25:07;0.40;;;0.40;;
5929;SDS011;2990;48.746;9.236;2023-05-23T15:27:36;0.50;;;0.50;;
5929;SDS011;2990;48.746;9.236;2023-05-23T15:30:04;0.50;;;0.50;;
5929;SDS011;2990;48.746;9.236;2023-05-23T15:32:30;0.55;;;0.55;;
5929;SDS011;2990;48.746;9.236;2023-05-23T15:34:56;0.50;;;0.50;;
5929;SDS011;2990;48.746;9.236;2023-05-23T15:37:22;0.55;;;0.55;;
5929;SDS011;2990;48.746;9.236;2023-05-23T15:39:53;0.85;;;0.85;;
5929;SDS011;2990;48.746;9.236;2023-05-23T15:42:23;0.32;;;0.32;;
5929;SDS011;2990;48.746;9.236;2023-05-23T15:44:52;0.75;;;0.75;;
5929;SDS011;2990;48.746;9.236;2023-05-23T15:47:18;0.50;;;0.50;;
5929;SDS011;2990;48.746;9.236;2023-05-23T15:49:53;0.30;;;0.30;;
5929;SDS011;2990;48.746;9.236;2023-05-23T15:52:19;0.40;;;0.40;;
5929;SDS011;2990;48.746;9.236;2023-05-23T15:54:47;0.40;;;0.40;;
5929;SDS011;2990;48.746;9.236;2023-05-23T15:57:13;0.60;;;0.60;;
5929;SDS011;2990;48.746;9.236;2023-05-23T15:59:46;0.43;;;0.43;;
5929;SDS011;2990;48.746;9.236;2023-05-23T16:02:12;0.93;;;0.93;;
5929;SDS011;2990;48.746;9.236;2023-05-23T16:04:40;1.02;;;0.50;;
5929;SDS011;2990;48.746;9.236;2023-05-23T16:07:05;0.57;;;0.57;;